Time;durP1;ratioP1;P1;durP2;ratioP2;P2;SDS_P1;SDS_P2;PMS_P1;PMS_P2;Temp;Humidity;BMP_temperature;BMP_pressure;BME280_temperature;BME280_humidity;BME280_pressure;Samples;Min_cycle;Max_cycle;Signal;HPM_P1;HPM_P2
2022/08/28 00:02:23;;;;;;;17.63;13.77;;;;;;;22.93;71.60;99782.47;6034966;23;97230;-76
2022/08/28 00:04:49;;;;;;;18.40;13.55;;;;;;;23.02;71.64;99811.06;6035787;23;97199;-76
2022/08/28 00:07:14;;;;;;;16.75;13.35;;;;;;;23.06;71.74;99814.28;6034802;23;96829;-76
2022/08/28 00:09:40;;;;;;;17.45;14.40;;;;;;;22.93;71.51;99792.34;6034960;23;101057;-76
2022/08/28 00:12:06;;;;;;;14.25;12.73;;;;;;;22.99;71.79;99818.53;6034467;23;101289;-76
2022/08/28 00:14:32;;;;;;;13.73;11.85;;;;;;;23.03;71.76;99820.78;6035084;23;96768;-77
2022/08/28 00:16:58;;;;;;;16.33;12.23;;;;;;;23.00;71.60;99820.22;6011163;23;97161;-79
2022/08/28 00:19:24;;;;;;;16.58;12.90;;;;;;;23.04;71.48;99827.00;6035205;23;101468;-77
2022/08/28 00:21:49;;;;;;;13.68;12.32;;;;;;;22.91;71.90;99819.22;6010934;23;100899;-76
2022/08/28 00:24:15;;;;;;;13.95;11.13;;;;;;;22.97;71.83;99829.38;6035045;23;97201;-76
2022/08/28 00:29:25;;;;;;;16.67;11.90;;;;;;;22.83;72.07;99805.72;6038724;23;99736;-76
2022/08/28 00:31:51;;;;;;;15.57;11.20;;;;;;;22.95;72.35;99826.03;6059138;23;97782;-76
2022/08/28 00:34:16;;;;;;;15.80;11.00;;;;;;;22.96;72.03;99819.69;6010457;23;98049;-76
2022/08/28 00:36:42;;;;;;;13.65;11.60;;;;;;;22.90;71.77;99804.16;6034524;23;97122;-79
2022/08/28 00:39:08;;;;;;;13.30;11.07;;;;;;;23.04;71.62;99809.09;6036696;23;99295;-76
2022/08/28 00:41:37;;;;;;;22.48;11.45;;;;;;;22.97;71.56;99807.13;6035435;23;101456;-80
2022/08/28 00:44:21;;;;;;;11.90;10.63;;;;;;;22.88;71.79;99805.28;6036696;23;97301;-76
2022/08/28 00:46:49;;;;;;;13.85;12.10;;;;;;;22.89;72.26;99809.66;6012807;23;97068;-79
2022/08/28 00:49:18;;;;;;;13.68;11.38;;;;;;;22.90;72.35;99816.72;6036206;23;99682;-78
2022/08/28 00:54:35;;;;;;;15.15;12.20;;;;;;;22.77;72.81;99807.13;6064073;23;97395;-76
2022/08/28 00:57:06;;;;;;;12.93;11.52;;;;;;;22.62;72.76;99779.13;6034066;23;97134;-78
2022/08/28 00:59:32;;;;;;;14.13;11.23;;;;;;;22.83;72.47;99801.22;6034260;23;101113;-76
2022/08/28 01:01:58;;;;;;;14.10;11.00;;;;;;;22.71;72.88;99798.84;6009730;23;100191;-79
2022/08/28 01:04:25;;;;;;;14.43;12.13;;;;;;;22.62;72.54;99784.47;6010544;23;97243;-79
2022/08/28 01:06:53;;;;;;;13.68;10.98;;;;;;;22.77;72.73;99806.28;6056674;23;96823;-76
2022/08/28 01:09:20;;;;;;;13.73;11.15;;;;;;;22.70;73.12;99813.22;6036578;23;97569;-78
2022/08/28 01:11:46;;;;;;;13.20;11.63;;;;;;;22.73;73.07;99818.28;6055860;23;98050;-79
2022/08/28 01:14:13;;;;;;;15.15;10.75;;;;;;;22.70;72.48;99797.16;6060462;23;96611;-81
2022/08/28 01:16:40;;;;;;;15.18;11.75;;;;;;;22.73;72.79;99808.41;6061252;23;96717;-81
2022/08/28 01:19:10;;;;;;;13.40;11.05;;;;;;;22.67;73.17;99811.66;6038119;23;97819;-79
2022/08/28 01:21:49;;;;;;;15.57;12.48;;;;;;;22.69;73.24;99806.16;6061879;23;97857;-78
2022/08/28 01:24:16;;;;;;;13.13;11.77;;;;;;;22.76;72.85;99800.09;6011779;23;97479;-80
2022/08/28 01:26:42;;;;;;;15.10;11.35;;;;;;;22.78;72.96;99808.84;6036829;23;96714;-79
2022/08/28 01:29:08;;;;;;;15.13;11.85;;;;;;;22.63;73.20;99786.19;6037118;23;97301;-78
2022/08/28 01:31:35;;;;;;;16.33;12.43;;;;;;;22.64;73.54;99797.72;6011122;23;101386;-77
2022/08/28 01:34:01;;;;;;;15.50;12.23;;;;;;;22.65;73.68;99802.09;6036382;23;96737;-75
2022/08/28 01:36:28;;;;;;;18.10;12.82;;;;;;;22.71;73.26;99801.50;6010457;23;97394;-82
2022/08/28 01:39:01;;;;;;;13.65;11.85;;;;;;;22.72;73.46;99798.72;6036048;23;101639;-79
2022/08/28 01:41:28;;;;;;;13.55;12.13;;;;;;;22.53;73.77;99777.31;6060292;23;97421;-78
2022/08/28 01:43:54;;;;;;;16.17;11.40;;;;;;;22.58;73.65;99775.91;6036485;23;96683;-79
2022/08/28 01:46:20;;;;;;;16.45;13.30;;;;;;;22.75;73.35;99793.06;6012063;23;96817;-79
2022/08/28 01:48:45;;;;;;;13.18;11.77;;;;;;;22.57;74.15;99784.06;6059975;23;97312;-76
2022/08/28 01:51:12;;;;;;;15.13;12.57;;;;;;;22.62;74.29;99797.03;6060923;23;97963;-77
2022/08/28 01:53:38;;;;;;;18.42;13.05;;;;;;;22.64;74.14;99798.56;6035635;23;97245;-79
2022/08/28 01:56:08;;;;;;;14.77;12.68;;;;;;;22.62;73.78;99778.28;6012588;23;97275;-76
2022/08/28 01:58:34;;;;;;;23.30;13.30;;;;;;;22.57;73.77;99784.94;6035403;23;97620;-76
2022/08/28 02:01:00;;;;;;;18.00;13.60;;;;;;;22.60;74.08;99795.34;6036927;23;97406;-79
2022/08/28 02:03:25;;;;;;;15.32;13.57;;;;;;;22.69;73.89;99796.31;6058828;23;97135;-77
2022/08/28 02:05:51;;;;;;;16.85;13.68;;;;;;;22.53;74.17;99788.00;6013225;23;96794;-76
2022/08/28 02:08:17;;;;;;;19.20;13.18;;;;;;;22.64;73.89;99795.91;6034683;23;100904;-78
2022/08/28 02:10:43;;;;;;;14.73;13.18;;;;;;;22.70;73.53;99800.66;6037251;23;98438;-76
2022/08/28 02:13:10;;;;;;;19.08;13.23;;;;;;;22.70;73.70;99797.16;6036178;23;97068;-77
2022/08/28 02:15:37;;;;;;;14.95;13.43;;;;;;;22.70;73.78;99802.50;6035826;23;97400;-76
2022/08/28 02:18:02;;;;;;;16.23;13.27;;;;;;;22.60;73.72;99794.47;6012263;23;101231;-76
2022/08/28 02:20:29;;;;;;;19.05;13.68;;;;;;;22.57;73.85;99784.94;6036289;23;101397;-76
2022/08/28 02:22:56;;;;;;;14.15;12.75;;;;;;;22.55;73.88;99786.88;6032149;23;97454;-78
2022/08/28 02:25:22;;;;;;;20.63;13.20;;;;;;;22.67;73.83;99800.13;6035610;23;97134;-78
2022/08/28 02:27:48;;;;;;;15.25;13.25;;;;;;;22.64;74.02;99797.72;6036784;23;101191;-78
2022/08/28 02:30:14;;;;;;;15.93;13.55;;;;;;;22.45;74.46;99786.03;6037842;23;97415;-78
2022/08/28 02:32:40;;;;;;;17.65;14.27;;;;;;;22.56;74.21;99801.94;6011067;23;96761;-78
2022/08/28 02:35:07;;;;;;;16.05;13.57;;;;;;;22.48;74.46;99788.44;6033433;23;97335;-77
2022/08/28 02:37:33;;;;;;;18.90;13.85;;;;;;;22.52;74.46;99791.69;6033462;23;101800;-80
2022/08/28 02:39:59;;;;;;;17.48;12.90;;;;;;;22.51;74.44;99792.66;6036531;23;101334;-76
2022/08/28 02:42:25;;;;;;;14.05;12.57;;;;;;;22.47;74.53;99789.41;6030629;23;97160;-76
2022/08/28 02:44:51;;;;;;;15.45;13.02;;;;;;;22.46;74.56;99800.28;6036546;23;96928;-77
2022/08/28 02:47:17;;;;;;;15.20;13.60;;;;;;;22.42;74.76;99777.47;6034871;23;101275;-77
2022/08/28 02:49:43;;;;;;;15.07;13.35;;;;;;;22.50;74.43;99788.31;6035516;23;101367;-76
2022/08/28 02:52:09;;;;;;;14.30;12.77;;;;;;;22.42;74.71;99778.31;6086298;23;96787;-76
2022/08/28 02:54:37;;;;;;;15.43;12.90;;;;;;;22.40;75.04;99791.00;6036382;23;97359;-76
2022/08/28 02:57:03;;;;;;;16.50;13.32;;;;;;;22.42;74.95;99780.13;6036665;23;97918;-76
2022/08/28 02:59:28;;;;;;;17.70;12.52;;;;;;;22.40;74.88;99796.34;6035376;23;97605;-78
2022/08/28 03:01:54;;;;;;;16.67;13.60;;;;;;;22.47;74.55;99805.47;6034380;23;97308;-77
2022/08/28 03:04:20;;;;;;;15.93;13.00;;;;;;;22.39;74.33;99791.94;6011856;23;97033;-77
2022/08/28 03:06:45;;;;;;;14.15;12.65;;;;;;;22.43;74.43;99813.91;6011824;23;100823;-78
2022/08/28 03:09:11;;;;;;;16.55;13.55;;;;;;;22.27;74.30;99788.56;6036133;23;101730;-75
2022/08/28 03:11:36;;;;;;;15.93;12.25;;;;;;;22.38;74.27;99804.47;6011090;23;97124;-76
2022/08/28 03:14:03;;;;;;;18.08;13.40;;;;;;;22.45;74.02;99814.63;6012634;23;96857;-76
2022/08/28 03:16:30;;;;;;;16.08;12.00;;;;;;;22.42;73.92;99802.38;6035364;23;98869;-78
2022/08/28 03:18:56;;;;;;;15.23;12.50;;;;;;;22.46;73.82;99814.50;6011798;23;101359;-76
2022/08/28 03:21:21;;;;;;;16.70;11.95;;;;;;;22.44;74.05;99812.94;6011316;23;96603;-78
2022/08/28 03:23:47;;;;;;;15.13;12.38;;;;;;;22.37;74.04;99805.47;6060451;23;97204;-77
2022/08/28 03:26:15;;;;;;;16.08;12.80;;;;;;;22.46;73.85;99806.47;6036157;23;97554;-76
2022/08/28 03:28:43;;;;;;;16.15;12.68;;;;;;;22.49;73.65;99797.31;6059305;23;98244;-76
2022/08/28 03:31:12;;;;;;;15.45;12.13;;;;;;;22.40;73.75;99798.13;6011489;23;97489;-78
2022/08/28 03:33:40;;;;;;;14.30;11.75;;;;;;;22.44;73.61;99799.56;6035055;23;97461;-78
2022/08/28 03:36:06;;;;;;;17.25;11.73;;;;;;;22.32;73.85;99794.34;6036330;23;97384;-76
2022/08/28 03:38:32;;;;;;;13.25;11.85;;;;;;;22.26;74.02;99788.72;6059211;23;97914;-78
2022/08/28 03:40:58;;;;;;;17.05;12.20;;;;;;;22.33;74.08;99797.88;6059956;23;96716;-78
2022/08/28 03:43:23;;;;;;;15.02;12.27;;;;;;;22.43;73.73;99806.75;6011007;23;96732;-77
2022/08/28 03:46:01;;;;;;;16.35;12.05;;;;;;;22.38;73.92;99807.16;6012354;23;100828;-79
2022/08/28 03:48:30;;;;;;;15.48;11.93;;;;;;;22.42;73.57;99804.19;6034811;23;101102;-76
2022/08/28 03:50:56;;;;;;;12.45;11.07;;;;;;;22.40;73.71;99814.19;6030702;23;97471;-78
2022/08/28 03:53:24;;;;;;;13.32;11.13;;;;;;;22.30;74.37;99812.34;6034241;23;97199;-76
2022/08/28 03:55:50;;;;;;;16.00;10.50;;;;;;;22.26;74.22;99808.28;6036023;23;97652;-78
2022/08/28 03:58:16;;;;;;;13.40;11.00;;;;;;;22.33;73.97;99809.41;6035200;23;97492;-76
2022/08/28 04:00:43;;;;;;;14.63;11.40;;;;;;;22.41;73.77;99818.56;6034909;23;97024;-76
2022/08/28 04:03:11;;;;;;;18.55;11.65;;;;;;;22.33;73.91;99816.56;6034924;23;96776;-78
2022/08/28 04:05:41;;;;;;;19.40;10.40;;;;;;;22.36;74.07;99824.31;6010681;23;101136;-76
2022/08/28 04:08:07;;;;;;;11.70;10.35;;;;;;;22.28;74.15;99814.34;6035657;23;101092;-76
2022/08/28 04:10:33;;;;;;;12.95;10.10;;;;;;;22.27;73.81;99793.09;6035386;23;97347;-78
2022/08/28 04:12:59;;;;;;;12.65;11.02;;;;;;;22.35;73.95;99822.63;6012244;23;97153;-77
2022/08/28 04:15:25;;;;;;;11.73;10.15;;;;;;;22.18;74.01;99791.25;6036208;23;97868;-76
2022/08/28 04:17:51;;;;;;;15.52;10.30;;;;;;;22.33;74.14;99819.25;6012011;23;100993;-78
2022/08/28 04:20:16;;;;;;;21.35;9.63;;;;;;;22.33;73.94;99812.06;6013533;23;99905;-78
2022/08/28 04:22:42;;;;;;;17.23;10.15;;;;;;;22.24;74.28;99809.41;6035456;23;97312;-78
2022/08/28 04:25:08;;;;;;;12.30;10.93;;;;;;;22.38;74.26;99833.91;6037023;23;100937;-78
2022/08/28 04:27:33;;;;;;;13.05;10.98;;;;;;;22.26;74.75;99832.34;6036043;23;100416;-77
2022/08/28 04:29:59;;;;;;;16.50;10.95;;;;;;;22.24;74.55;99834.28;6060816;23;97377;-78
2022/08/28 04:32:24;;;;;;;12.05;10.15;;;;;;;22.40;74.05;99851.63;6011991;23;96806;-77
2022/08/28 04:34:50;;;;;;;12.00;10.77;;;;;;;22.21;74.39;99826.56;6036695;23;101523;-76
2022/08/28 04:37:16;;;;;;;13.18;9.65;;;;;;;22.33;73.81;99837.97;6036820;23;101351;-78
2022/08/28 04:39:42;;;;;;;12.10;9.18;;;;;;;22.41;74.03;99854.16;6035352;23;97163;-76
2022/08/28 04:42:08;;;;;;;13.38;10.48;;;;;;;22.38;73.84;99841.06;6036527;23;97455;-78
2022/08/28 04:44:33;;;;;;;13.93;11.18;;;;;;;22.32;73.94;99828.28;6036529;23;97761;-76
2022/08/28 04:46:59;;;;;;;12.63;9.50;;;;;;;22.35;73.93;99839.53;6037013;23;97452;-76
2022/08/28 04:49:24;;;;;;;13.82;9.55;;;;;;;22.10;74.25;99803.44;6036547;23;97113;-78
2022/08/28 04:51:50;;;;;;;12.63;9.85;;;;;;;22.28;73.97;99829.50;6010157;23;97080;-76
2022/08/28 04:54:16;;;;;;;12.05;9.23;;;;;;;22.32;73.89;99826.44;6011044;23;100884;-78
2022/08/28 04:56:42;;;;;;;12.88;9.13;;;;;;;22.43;73.96;99840.63;6055532;23;97421;-77
2022/08/28 04:59:08;;;;;;;13.52;9.63;;;;;;;22.45;73.73;99844.88;6012596;23;96702;-77
2022/08/28 05:01:33;;;;;;;11.45;9.85;;;;;;;22.29;74.19;99824.03;6060547;23;97013;-77
2022/08/28 05:04:01;;;;;;;10.43;9.32;;;;;;;22.41;74.01;99856.00;6036084;23;101146;-77
2022/08/28 05:06:28;;;;;;;10.32;8.65;;;;;;;22.45;73.80;99849.38;6036145;23;101060;-77
2022/08/28 05:08:56;;;;;;;11.95;10.02;;;;;;;22.43;73.72;99832.63;6012114;23;97083;-78
2022/08/28 05:11:24;;;;;;;11.93;8.80;;;;;;;22.50;73.56;99845.28;6037035;23;96763;-77
2022/08/28 05:13:50;;;;;;;12.38;10.57;;;;;;;22.51;73.72;99843.47;6036718;23;101469;-76
2022/08/28 05:16:17;;;;;;;12.25;9.95;;;;;;;22.47;73.80;99842.06;6036529;23;101563;-78
2022/08/28 05:18:43;;;;;;;11.75;9.95;;;;;;;22.55;73.45;99848.41;6036232;23;97179;-78
2022/08/28 05:21:13;;;;;;;13.75;9.95;;;;;;;22.58;73.58;99850.78;6036986;23;97141;-78
2022/08/28 05:23:40;;;;;;;13.07;9.60;;;;;;;22.60;73.69;99847.97;6059707;23;98506;-78
2022/08/28 05:26:10;;;;;;;10.80;9.57;;;;;;;22.51;73.92;99857.66;6036972;23;101375;-79
2022/08/28 05:28:36;;;;;;;14.25;10.00;;;;;;;22.49;73.82;99846.28;6011027;23;97420;-79
2022/08/28 05:31:10;;;;;;;15.18;9.95;;;;;;;22.56;73.79;99857.25;6012659;23;97293;-77
2022/08/28 05:33:36;;;;;;;11.05;9.88;;;;;;;22.61;73.55;99852.34;6035135;23;97731;-78
2022/08/28 05:36:06;;;;;;;12.95;9.68;;;;;;;22.57;73.66;99859.81;6037170;23;101148;-79
2022/08/28 05:38:32;;;;;;;13.05;9.80;;;;;;;22.47;73.40;99840.22;6060380;23;96638;-77
2022/08/28 05:40:57;;;;;;;13.55;9.45;;;;;;;22.46;74.01;99861.78;6036360;23;96931;-79
2022/08/28 05:43:24;;;;;;;12.60;10.07;;;;;;;22.58;73.47;99858.81;6036931;23;101184;-79
2022/08/28 05:46:00;;;;;;;14.60;10.90;;;;;;;22.60;73.32;99862.22;6061482;23;101940;-78
2022/08/28 05:48:30;;;;;;;12.23;9.73;;;;;;;22.50;73.66;99841.78;6012068;23;96859;-80
2022/08/28 05:51:09;;;;;;;11.75;10.00;;;;;;;22.63;73.45;99863.75;6037091;23;97215;-79
2022/08/28 05:53:40;;;;;;;12.15;9.60;;;;;;;22.62;73.39;99848.69;6011829;23;101317;-79
2022/08/28 05:56:10;;;;;;;15.50;9.65;;;;;;;22.68;73.32;99855.28;6037315;23;100973;-77
2022/08/28 05:58:38;;;;;;;15.55;10.68;;;;;;;22.68;73.50;99869.50;6059610;23;97019;-77
2022/08/28 06:01:27;;;;;;;13.30;10.55;;;;;;;22.74;73.11;99868.94;6062105;23;97299;-77
2022/08/28 06:04:02;;;;;;;13.55;11.85;;;;;;;22.80;72.82;99849.66;6013723;23;101392;-78
2022/08/28 06:06:32;;;;;;;13.73;10.45;;;;;;;22.82;72.87;99861.06;6031785;23;101891;-77
2022/08/28 06:09:14;;;;;;;14.67;10.93;;;;;;;22.80;72.80;99848.81;6061590;23;97270;-78
2022/08/28 06:11:39;;;;;;;;;;;;;;;22.85;73.03;99865.28;6084479;23;97196;-76
2022/08/28 06:14:09;;;;;;;16.75;11.13;;;;;;;22.82;72.76;99850.34;6055451;23;97917;-79
2022/08/28 06:16:40;;;;;;;16.60;11.97;;;;;;;22.89;72.38;99853.31;6011139;23;102517;-78
2022/08/28 06:19:08;;;;;;;14.45;11.30;;;;;;;23.01;72.10;99864.75;6011365;23;97328;-80
2022/08/28 06:21:34;;;;;;;12.30;10.80;;;;;;;23.13;71.91;99878.81;6034267;23;97172;-82
2022/08/28 06:24:00;;;;;;;13.68;11.32;;;;;;;23.18;71.72;99874.69;6035887;23;97921;-80
2022/08/28 06:26:27;;;;;;;13.88;10.13;;;;;;;23.22;71.74;99881.47;6035873;23;97812;-81
2022/08/28 06:28:52;;;;;;;16.85;11.88;;;;;;;23.28;71.43;99880.06;6010622;23;96661;-80
2022/08/28 06:31:18;;;;;;;14.65;10.73;;;;;;;23.26;71.48;99879.34;6010780;23;97167;-80
2022/08/28 06:33:45;;;;;;;12.85;11.25;;;;;;;23.21;71.15;99871.75;6004931;23;101414;-80
2022/08/28 06:36:11;;;;;;;14.43;11.57;;;;;;;23.30;71.10;99877.22;6029738;23;101441;-80
2022/08/28 06:38:36;;;;;;;15.57;11.65;;;;;;;23.30;71.32;99875.41;6005677;23;96981;-81
2022/08/28 06:41:08;;;;;;;13.70;10.90;;;;;;;23.43;70.92;99872.41;6029553;23;97089;-80
2022/08/28 06:43:33;;;;;;;18.70;11.30;;;;;;;23.47;70.83;99881.81;5980560;23;101753;-81
2022/08/28 06:45:59;;;;;;;13.23;9.70;;;;;;;23.55;70.83;99876.59;6005801;23;100965;-80
2022/08/28 06:48:27;;;;;;;13.35;9.00;;;;;;;23.61;70.55;99880.50;6029406;23;97301;-81
2022/08/28 06:50:53;;;;;;;10.25;9.18;;;;;;;23.75;69.93;99884.59;6004945;23;96819;-81
2022/08/28 06:53:22;;;;;;;11.68;8.85;;;;;;;23.82;69.84;99872.28;6006435;23;101351;-80
2022/08/28 06:56:07;;;;;;;11.50;9.82;;;;;;;23.98;69.35;99885.88;6002927;23;101005;-83
2022/08/28 06:58:34;;;;;;;14.52;9.45;;;;;;;23.99;69.09;99876.84;6005143;23;96885;-85
2022/08/28 07:01:13;;;;;;;11.52;9.68;;;;;;;24.03;69.39;99877.38;6004872;23;96928;-80
2022/08/28 07:03:40;;;;;;;11.45;9.00;;;;;;;23.89;69.26;99865.34;6028045;23;102104;-82
2022/08/28 07:06:07;;;;;;;12.95;10.20;;;;;;;24.03;69.11;99883.59;6004943;23;100749;-82
2022/08/28 07:08:33;;;;;;;13.43;9.70;;;;;;;23.97;69.68;99886.88;6027452;23;97538;-83
2022/08/28 07:10:59;;;;;;;12.38;10.38;;;;;;;23.97;69.67;99886.03;6008000;23;97492;-88
2022/08/28 07:13:25;;;;;;;13.48;10.45;;;;;;;23.92;69.90;99879.28;6038317;23;101139;-87
2022/08/28 07:15:51;;;;;;;12.73;10.50;;;;;;;23.90;69.34;99861.66;6008208;23;100656;-76
2022/08/28 07:18:17;;;;;;;12.48;10.43;;;;;;;24.11;69.38;99881.00;5983321;23;97127;-75
2022/08/28 07:20:43;;;;;;;17.13;11.00;;;;;;;24.18;69.09;99887.47;6006538;23;96967;-74
2022/08/28 07:23:09;;;;;;;15.52;10.63;;;;;;;24.36;68.45;99892.84;5998281;23;100908;-75
2022/08/28 07:25:39;;;;;;;13.10;9.52;;;;;;;24.23;68.38;99881.66;6028049;23;101933;-75
2022/08/28 07:28:04;;;;;;;11.00;9.85;;;;;;;24.27;68.47;99890.25;5979124;23;97520;-75
2022/08/28 07:30:30;;;;;;;17.35;10.80;;;;;;;24.26;68.76;99893.91;6028165;23;97161;-78
2022/08/28 07:32:55;;;;;;;12.80;10.10;;;;;;;24.24;68.92;99887.88;6024758;23;98093;-73
2022/08/28 07:35:21;;;;;;;14.70;10.80;;;;;;;24.18;68.69;99884.78;6004491;23;101908;-73
2022/08/28 07:37:47;;;;;;;11.77;9.77;;;;;;;24.34;68.68;99892.16;6023081;23;97184;-75
2022/08/28 07:40:15;;;;;;;13.23;9.70;;;;;;;24.28;68.22;99894.59;6004251;23;97240;-77
2022/08/28 07:45:28;;;;;;;8.35;7.40;;;;;;;24.53;68.13;99901.13;6030961;23;97763;-75
2022/08/28 07:47:53;;;;;;;9.10;8.20;;;;;;;24.65;67.95;99904.41;6027776;23;97248;-74
2022/08/28 07:50:19;;;;;;;8.20;6.32;;;;;;;24.74;67.05;99890.91;6005431;23;96959;-74
2022/08/28 07:52:44;;;;;;;10.57;6.05;;;;;;;25.20;65.83;99906.94;6004301;23;98056;-73
2022/08/28 07:55:10;;;;;;;6.63;4.68;;;;;;;25.47;64.56;99912.16;6028514;23;97682;-73
2022/08/28 07:57:35;;;;;;;7.40;4.90;;;;;;;25.58;64.29;99894.09;6003756;23;97407;-73
2022/08/28 08:00:01;;;;;;;5.72;5.10;;;;;;;25.61;64.33;99902.66;5981687;23;97294;-73
2022/08/28 08:02:36;;;;;;;5.25;4.13;;;;;;;25.48;65.04;99903.09;6030586;23;97870;-73
2022/08/28 08:05:02;;;;;;;5.85;4.88;;;;;;;25.38;65.30;99905.03;6005210;23;101280;-76
2022/08/28 08:07:28;;;;;;;7.05;4.93;;;;;;;25.36;65.13;99904.34;5982198;23;97244;-80
2022/08/28 08:09:53;;;;;;;4.95;3.80;;;;;;;25.68;63.89;99903.69;6004758;23;97228;-76
2022/08/28 08:12:19;;;;;;;5.22;3.85;;;;;;;26.00;63.59;99904.06;6054733;23;97994;-78
2022/08/28 08:14:44;;;;;;;4.80;4.30;;;;;;;26.21;62.80;99901.81;5980539;23;100749;-74
2022/08/28 08:17:10;;;;;;;6.50;5.03;;;;;;;26.07;63.37;99907.81;6029118;23;97235;-78
2022/08/28 08:19:36;;;;;;;5.90;4.90;;;;;;;26.16;63.08;99915.72;6005459;23;97044;-75
2022/08/28 08:22:02;;;;;;;4.72;4.30;;;;;;;26.24;62.67;99890.72;5980291;23;101236;-78
2022/08/28 08:24:29;;;;;;;5.22;3.85;;;;;;;26.01;62.53;99893.16;6004925;23;101034;-78
2022/08/28 08:26:57;;;;;;;3.60;3.30;;;;;;;26.40;62.09;99923.03;5980551;23;96680;-77
2022/08/28 08:29:23;;;;;;;4.28;3.20;;;;;;;26.16;62.58;99926.50;6003194;23;97272;-77
2022/08/28 08:31:57;;;;;;;3.53;2.92;;;;;;;25.97;62.14;99929.41;6028261;23;98431;-78
2022/08/28 08:34:22;;;;;;;4.88;2.90;;;;;;;25.95;62.64;99923.38;6028754;23;101013;-78
2022/08/28 08:36:48;;;;;;;4.38;2.95;;;;;;;26.02;62.45;99920.88;6058021;23;97134;-77
2022/08/28 08:39:13;;;;;;;4.45;3.13;;;;;;;26.35;61.62;99917.28;6033932;23;97752;-77
2022/08/28 08:41:47;;;;;;;5.75;3.00;;;;;;;26.40;60.87;99904.19;6029293;23;97492;-78
2022/08/28 08:44:22;;;;;;;3.92;2.88;;;;;;;26.33;60.93;99905.88;6004895;23;100865;-77
2022/08/28 08:47:09;;;;;;;2.88;2.58;;;;;;;26.15;61.36;99930.19;6006603;23;97556;-77
2022/08/28 08:49:38;;;;;;;5.10;2.78;;;;;;;25.99;62.53;99931.97;6032083;23;97062;-78
2022/08/28 08:52:24;;;;;;;4.32;2.85;;;;;;;25.88;63.08;99936.59;6025997;23;98099;-76
2022/08/28 08:55:02;;;;;;;5.18;2.60;;;;;;;26.14;62.44;99933.03;6024687;23;100966;-78
2022/08/28 08:57:29;;;;;;;3.15;2.30;;;;;;;26.64;61.10;99933.03;6023740;23;97251;-78
2022/08/28 08:59:55;;;;;;;3.80;2.33;;;;;;;26.67;60.88;99933.72;6054335;23;97769;-80
2022/08/28 09:02:25;;;;;;;2.25;2.00;;;;;;;26.68;60.96;99935.41;6057118;23;97511;-79
2022/08/28 09:04:57;;;;;;;2.00;1.90;;;;;;;26.82;60.08;99935.59;6004076;23;100878;-80
2022/08/28 09:07:28;;;;;;;3.22;1.80;;;;;;;27.35;58.62;99924.53;6084355;23;97227;-81
2022/08/28 09:09:55;;;;;;;4.70;2.00;;;;;;;27.80;57.68;99923.94;6032947;23;97469;-79
2022/08/28 09:12:26;;;;;;;3.67;2.00;;;;;;;30.02;52.57;99918.63;6026210;23;101210;-78
2022/08/28 09:15:03;;;;;;;5.32;1.73;;;;;;;29.15;53.31;99923.72;6026581;23;100633;-81
2022/08/28 09:17:46;;;;;;;5.72;1.90;;;;;;;28.93;53.80;99915.44;6059465;23;96641;-81
2022/08/28 09:20:18;;;;;;;2.00;1.80;;;;;;;29.07;53.06;99906.56;6030470;23;97251;-81
2022/08/28 09:22:45;;;;;;;1.65;1.55;;;;;;;28.80;53.94;99916.06;6033053;23;97813;-80
2022/08/28 09:25:32;;;;;;;2.45;1.65;;;;;;;29.62;51.99;99928.03;6032626;23;101818;-81
2022/08/28 09:28:05;;;;;;;6.95;1.80;;;;;;;29.27;52.58;99933.94;6035829;23;96826;-79
2022/08/28 09:30:31;;;;;;;1.85;1.50;;;;;;;28.51;54.41;99932.94;6036056;23;97098;-79
2022/08/28 09:33:00;;;;;;;3.75;1.83;;;;;;;28.16;55.42;99920.78;6034814;23;100991;-79
2022/08/28 09:35:30;;;;;;;1.85;1.55;;;;;;;28.26;55.17;99936.75;6033356;23;101243;-78
2022/08/28 09:38:19;;;;;;;2.55;1.83;;;;;;;29.41;51.59;99936.81;6033176;23;97391;-78
2022/08/28 09:43:30;;;;;;;2.00;1.50;;;;;;;29.37;51.01;99925.53;6062242;23;98067;-81
2022/08/28 09:46:28;;;;;;;5.63;1.55;;;;;;;29.79;49.92;99937.66;6007226;23;101366;-82
2022/08/28 09:49:07;;;;;;;2.78;1.30;;;;;;;28.50;51.66;99920.44;6021334;23;97152;-81
2022/08/28 09:51:37;;;;;;;1.80;1.67;;;;;;;28.23;52.87;99929.00;6037048;23;96725;-80
2022/08/28 09:54:29;;;;;;;1.50;1.40;;;;;;;27.66;54.63;99936.25;6038171;23;100039;-80
2022/08/28 09:56:55;;;;;;;1.95;1.38;;;;;;;27.58;55.10;99927.34;5994684;23;101404;-81
2022/08/28 09:59:22;;;;;;;1.40;1.30;;;;;;;27.80;54.40;99928.50;6037280;23;96845;-80
2022/08/28 10:02:23;;;;;;;2.60;1.30;;;;;;;28.37;52.74;99929.09;6036770;23;97077;-80
2022/08/28 10:05:09;;;;;;;2.00;1.85;;;;;;;27.96;54.47;99933.84;6036767;23;101531;-81
2022/08/28 10:07:47;;;;;;;5.50;2.22;;;;;;;27.63;55.74;99933.06;6037354;23;97271;-86
2022/08/28 10:10:33;;;;;;;3.40;1.70;;;;;;;27.44;56.33;99937.81;6061101;23;97068;-80
2022/08/28 10:13:12;;;;;;;4.63;1.83;;;;;;;27.00;57.03;99940.84;6037168;23;96915;-79
2022/08/28 10:16:12;;;;;;;2.13;1.92;;;;;;;26.63;58.20;99947.50;6061389;23;97894;-80
2022/08/28 10:18:41;;;;;;;2.50;2.20;;;;;;;26.50;58.48;99946.28;6062297;23;97765;-83
2022/08/28 10:21:24;;;;;;;2.13;2.00;;;;;;;26.53;58.47;99952.22;6061809;23;96705;-80
2022/08/28 10:24:15;;;;;;;2.10;1.90;;;;;;;26.66;58.00;99950.88;6060875;23;96936;-79
2022/08/28 10:26:49;;;;;;;2.30;2.10;;;;;;;26.80;58.18;99952.94;6037077;23;101368;-80
2022/08/28 10:29:40;;;;;;;2.20;2.00;;;;;;;26.83;58.11;99949.91;6037191;23;97906;-80
2022/08/28 10:32:11;;;;;;;5.30;2.20;;;;;;;26.32;58.44;99933.75;6036869;23;97385;-81
2022/08/28 10:34:57;;;;;;;2.10;1.90;;;;;;;26.64;58.16;99946.50;6036909;23;97053;-84
2022/08/28 10:37:29;;;;;;;2.03;1.85;;;;;;;26.52;58.38;99953.19;6061377;23;98517;-79
2022/08/28 10:39:59;;;;;;;4.95;2.20;;;;;;;26.27;58.51;99938.81;6061085;23;97822;-84
2022/08/28 10:42:34;;;;;;;2.00;1.80;;;;;;;26.25;58.66;99954.25;6037278;23;96628;-82
2022/08/28 10:45:07;;;;;;;2.83;2.40;;;;;;;25.99;59.03;99938.19;6034560;23;96838;-81
2022/08/28 10:47:35;;;;;;;3.60;2.15;;;;;;;26.39;58.18;99947.41;6035427;23;97831;-81
2022/08/28 10:50:06;;;;;;;2.95;1.83;;;;;;;26.61;58.11;99943.28;6034487;23;101281;-81
2022/08/28 10:52:39;;;;;;;2.78;1.90;;;;;;;26.52;57.67;99944.28;6033834;23;97160;-80
2022/08/28 10:55:13;;;;;;;2.40;2.20;;;;;;;26.07;58.50;99950.84;6036019;23;96872;-80
2022/08/28 10:57:47;;;;;;;2.47;2.03;;;;;;;25.84;59.17;99961.28;6036535;23;98069;-85
2022/08/28 11:00:19;;;;;;;2.60;1.80;;;;;;;25.71;59.55;99940.16;6038035;23;97517;-81
2022/08/28 11:02:48;;;;;;;3.45;1.88;;;;;;;25.59;60.02;99925.31;6035934;23;96711;-83
2022/08/28 11:05:19;;;;;;;1.95;1.67;;;;;;;25.74;60.43;99959.53;6012309;23;96941;-82
2022/08/28 11:07:52;;;;;;;5.13;2.40;;;;;;;25.84;60.27;99956.75;6036258;23;100945;-81
2022/08/28 11:10:35;;;;;;;3.72;1.40;;;;;;;25.85;60.08;99939.63;6036352;23;101372;-81
2022/08/28 11:13:02;;;;;;;25.55;4.30;;;;;;;25.89;60.08;99964.31;6060920;23;96767;-81
2022/08/28 11:15:28;;;;;;;4.22;1.67;;;;;;;26.15;59.71;99975.03;6037354;23;97112;-75
2022/08/28 11:18:12;;;;;;;8.13;2.10;;;;;;;26.00;59.85;99965.91;6058917;23;97994;-78
2022/08/28 11:20:39;;;;;;;7.25;1.50;;;;;;;25.93;59.91;99966.56;6032297;23;101520;-79
2022/08/28 11:23:16;;;;;;;2.03;1.27;;;;;;;26.04;59.76;99970.81;6059512;23;97402;-76
2022/08/28 11:25:57;;;;;;;3.45;1.40;;;;;;;26.22;59.51;99968.03;6035714;23;97426;-76
2022/08/28 11:28:23;;;;;;;5.80;1.50;;;;;;;26.11;59.70;99971.84;6060984;23;97540;-75
2022/08/28 11:30:57;;;;;;;3.08;2.47;;;;;;;26.10;59.76;99969.34;6080141;23;98494;-76
2022/08/28 11:33:51;;;;;;;3.13;2.30;;;;;;;25.88;59.87;99968.88;6032851;23;96719;-75
2022/08/28 11:36:20;;;;;;;3.85;2.30;;;;;;;25.94;60.04;99970.06;6017522;23;97533;-80
2022/08/28 11:38:54;;;;;;;3.22;2.92;;;;;;;26.17;59.28;99970.34;6058137;23;97983;-78
2022/08/28 11:41:26;;;;;;;3.58;3.28;;;;;;;26.29;58.98;99973.59;6057729;23;101393;-79
2022/08/28 11:44:12;;;;;;;4.20;3.90;;;;;;;26.11;59.22;99973.69;6008476;23;97362;-79